This is the latest recevied weather packets stored in our database for station/object OE5HMR-13. If no packets are shown the sender has not sent any weather packets the latest 10 day(s).
| Time | Temp. | Humidity | Pressure | Rain* | Wind** | Luminosity | Snow |
|---|---|---|---|---|---|---|---|
| 1777986328 | 23.89° C | 29% | 1006.9 hPa | 0 mm | - | - | - |
| 1777982727 | 24.44° C | 30% | 1008 hPa | 0 mm | - | - | - |
| 1777979725 | 23.89° C | 33% | 1008 hPa | 0 mm | - | - | - |
| 1777974930 | 22.22° C | 36% | 1008 hPa | 0 mm | - | - | - |
| 1777971945 | 21.67° C | 33% | 1008 hPa | 0 mm | - | - | - |
| 1777971328 | 21.67° C | 37% | 1009.1 hPa | 0 mm | - | - | - |
| 1777970138 | 21.11° C | 38% | 1009.1 hPa | 0 mm | - | - | - |
| 1777968346 | 20.56° C | 44% | 1009.1 hPa | 0 mm | - | - | - |
| 1777965346 | 18.89° C | 52% | 1009.1 hPa | 0 mm | - | - | - |
| 1777961151 | 13.33° C | 65% | 1009.1 hPa | 0 mm | - | - | - |
| 1777960523 | 12.78° C | 66% | 1009.1 hPa | 0 mm | - | - | - |
| 1777959326 | 11.67° C | 69% | 1009.1 hPa | 0 mm | - | - | - |
| 1777958738 | 11.11° C | 68% | 1009.1 hPa | 0 mm | - | - | - |
| 1777956928 | 10° C | 69% | 1009.1 hPa | 0 mm | - | - | - |
| 1777955131 | 8.89° C | 70% | 1009.1 hPa | 0 mm | - | - | - |
| 1777954527 | 8.33° C | 69% | 1009.1 hPa | 0 mm | - | - | - |
| 1777952775 | 8.33° C | 67% | 1009.1 hPa | 0 mm | - | - | - |
| 1777950335 | 8.89° C | 64% | 1009.1 hPa | 0 mm | - | - | - |
| 1777949124 | 10° C | 63% | 1009.2 hPa | - | - | - | - |
| 1777948529 | 10° C | 63% | 1010.2 hPa | - | - | - | - |
| 1777946726 | 11.11° C | 59% | 1010.2 hPa | - | - | - | - |
| 1777944652 | 11.67° C | 57% | 1010.2 hPa | - | - | - | - |
| 1777941034 | 12.78° C | 55% | 1010.2 hPa | - | - | - | - |
| 1777938635 | 13.33° C | 53% | 1011.3 hPa | - | - | - | - |
| 1777938031 | 13.33° C | 53% | 1011.3 hPa | - | - | - | - |
* Rain latest hour (hover to see other rain measurements)
** Current wind speed in m/s (hover to see current wind gust speed)